Flood From: 19-02-2018 16:00 Until: 20-02-2018 16:00 warning for: Flood Level: Yellow info button

Although rather usual in this region, locally or potentially dangerous phenomena are expected. (such as local winds, summer thunderstorms, rising streams or high waves) Be aware and pay attention to the latest weather updates, especially if you carry out activities exposed to weather or close to a stream or shoreline. 


Meteo18 Weather Cam more information Meteo18 Weather Cam


Thunder radar more information blitzortung!


Rain radar more information rain snow radar


Visit our other weather sites:

Template documentation
and downloads

And another site



Weather Underground History page Text

Daily Summary for December 12, 2017 Units:  Both    English   Metric
« Previous Day
Next Day »
Daily Weekly Monthly Yearly Custom
  High: Low: Average:
Temperature: TemperatureC °F /  -17.8 °C -0.4 °F /  -18 °C 2.5 °F /  -16.4 °C
Dew Point: DewpointC °F /  -17.8 °C -1.1 °F /  -18.4 °C 0.8 °F /  -17.3 °C
Humidity: Humidity % 79 % 88 %
Wind Speed: WindSpeedKMH mph /  0 km/h - 4.2 mph /  6.8 km/h
Wind Gust: WindSpeedGustKMH mph /  0 km/h - -
Wind:- - WSW
Pressure: PressurehPa in /  0 hPa 999.9 in /  33856.6 hPa -
Precipitation: 0.0 in /  0 mm    
Historical Graphs
 
 
Tabular Data for December 12, 2017
Time Temperature Dew Point Pressure Wind Wind Speed Wind Gust Humidity Rainfall Rate (Hourly)
TemperatureC °F /  -17.8 °C DewpointC °F /  -17.8 °C PressurehPa in /  0 hPa Calm     Humidity % HourlyPrecipMM in /  0 mm
00:07 3.3 °F /  -15.9 °C 1.5 °F /  -16.9 °C 999.9 in /  33856.6 hPa Calm   24.1 mph /  38.8 km/h 88 % 0.0 in /  0 mm
00:12 3.3 °F /  -15.9 °C 1.5 °F /  -16.9 °C 999.9 in /  33856.6 hPa West 1.6 mph /  2.6 km/h 14.5 mph /  23.3 km/h 88 % 0.0 in /  0 mm
00:17 3.3 °F /  -15.9 °C 1.5 °F /  -16.9 °C 1000.2 in /  33866.8 hPa WNW 3.2 mph /  5.1 km/h 14.5 mph /  23.3 km/h 88 % 0.0 in /  0 mm
00:22 3.4 °F /  -15.9 °C 1.8 °F /  -16.8 °C 1000.2 in /  33866.8 hPa WNW 4.8 mph /  7.7 km/h 11.3 mph /  18.2 km/h 89 % 0.0 in /  0 mm
00:32 3.6 °F /  -15.8 °C 1.8 °F /  -16.8 °C 1000.6 in /  33880.3 hPa West 4.8 mph /  7.7 km/h 12.9 mph /  20.8 km/h 88 % 0.0 in /  0 mm
00:37 3.7 °F /  -15.7 °C 1.7 °F /  -16.8 °C 1000.6 in /  33880.3 hPa WNW 8.0 mph /  12.9 km/h 12.9 mph /  20.8 km/h 87 % 0.0 in /  0 mm
00:47 3.8 °F /  -15.7 °C 1.7 °F /  -16.8 °C 1000.9 in /  33890.5 hPa NW 14.5 mph /  23.3 km/h 20.9 mph /  33.6 km/h 86 % 0.0 in /  0 mm
00:52 3.8 °F /  -15.7 °C 1.7 °F /  -16.8 °C 1000.9 in /  33890.5 hPa WSW 8.0 mph /  12.9 km/h 20.9 mph /  33.6 km/h 86 % 0.0 in /  0 mm
00:57 3.8 °F /  -15.7 °C 1.7 °F /  -16.8 °C 1000.9 in /  33890.5 hPa WNW 9.7 mph /  15.6 km/h 20.9 mph /  33.6 km/h 86 % 0.0 in /  0 mm
01:12 3.7 °F /  -15.7 °C 1.6 °F /  -16.9 °C 1001.2 in /  33900.6 hPa NW 11.3 mph /  18.2 km/h 20.9 mph /  33.6 km/h 86 % 0.0 in /  0 mm
01:22 3.7 °F /  -15.7 °C 1.6 °F /  -16.9 °C 1001.6 in /  33914.2 hPa West 4.8 mph /  7.7 km/h 19.3 mph /  31.1 km/h 86 % 0.0 in /  0 mm
01:27 3.6 °F /  -15.8 °C 1.6 °F /  -16.9 °C 1001.6 in /  33914.2 hPa West 4.8 mph /  7.7 km/h 19.3 mph /  31.1 km/h 87 % 0.0 in /  0 mm
01:32 3.7 °F /  -15.7 °C 1.6 °F /  -16.9 °C 1001.6 in /  33914.2 hPa Calm   20.9 mph /  33.6 km/h 86 % 0.0 in /  0 mm
01:42 3.5 °F /  -15.8 °C 1.5 °F /  -16.9 °C 1001.9 in /  33924.3 hPa WNW 1.6 mph /  2.6 km/h 20.9 mph /  33.6 km/h 87 % 0.0 in /  0 mm
01:47 3.4 °F /  -15.9 °C 1.4 °F /  -17 °C 1001.9 in /  33924.3 hPa WNW 3.2 mph /  5.1 km/h 14.5 mph /  23.3 km/h 87 % 0.0 in /  0 mm
01:52 3.4 °F /  -15.9 °C 1.4 °F /  -17 °C 1001.9 in /  33924.3 hPa WNW 3.2 mph /  5.1 km/h 16.1 mph /  25.9 km/h 87 % 0.0 in /  0 mm
01:57 3.3 °F /  -15.9 °C 1.3 °F /  -17.1 °C 1001.9 in /  33924.3 hPa West 3.2 mph /  5.1 km/h 16.1 mph /  25.9 km/h 87 % 0.0 in /  0 mm
02:02 3.3 °F /  -15.9 °C 1.3 °F /  -17.1 °C 1002.3 in /  33937.9 hPa West 1.6 mph /  2.6 km/h 16.1 mph /  25.9 km/h 87 % 0.0 in /  0 mm
02:17 3.2 °F /  -16 °C 1.2 °F /  -17.1 °C 1002.6 in /  33948 hPa WNW 3.2 mph /  5.1 km/h 9.7 mph /  15.6 km/h 87 % 0.0 in /  0 mm
02:27 3.1 °F /  -16.1 °C 1.3 °F /  -17.1 °C 1002.6 in /  33948 hPa WNW 1.6 mph /  2.6 km/h 8.0 mph /  12.9 km/h 88 % 0.0 in /  0 mm
02:42 2.9 °F /  -16.2 °C 1.1 °F /  -17.2 °C 1002.9 in /  33958.2 hPa West 1.6 mph /  2.6 km/h 8.0 mph /  12.9 km/h 88 % 0.0 in /  0 mm
02:52 2.8 °F /  -16.2 °C 1.2 °F /  -17.1 °C 1003.3 in /  33971.7 hPa WNW 3.2 mph /  5.1 km/h 6.4 mph /  10.3 km/h 89 % 0.0 in /  0 mm
02:57 2.8 °F /  -16.2 °C 1.2 °F /  -17.1 °C 1003.3 in /  33971.7 hPa West 1.6 mph /  2.6 km/h 6.4 mph /  10.3 km/h 89 % 0.0 in /  0 mm
03:07 2.8 °F /  -16.2 °C 1.2 °F /  -17.1 °C 1003.9 in /  33992.1 hPa Calm   4.8 mph /  7.7 km/h 89 % 0.0 in /  0 mm
03:12 2.9 °F /  -16.2 °C 1.3 °F /  -17.1 °C 1003.9 in /  33992.1 hPa Calm   4.8 mph /  7.7 km/h 89 % 0.0 in /  0 mm
03:17 2.9 °F /  -16.2 °C 1.3 °F /  -17.1 °C 1003.9 in /  33992.1 hPa Calm   3.2 mph /  5.1 km/h 89 % 0.0 in /  0 mm
03:22 2.9 °F /  -16.2 °C 1.3 °F /  -17.1 °C 1004.3 in /  34005.6 hPa SW 1.6 mph /  2.6 km/h 3.2 mph /  5.1 km/h 89 % 0.0 in /  0 mm
03:27 2.9 °F /  -16.2 °C 1.3 °F /  -17.1 °C 1004.3 in /  34005.6 hPa WSW 1.6 mph /  2.6 km/h 6.4 mph /  10.3 km/h 89 % 0.0 in /  0 mm
03:32 2.9 °F /  -16.2 °C 1.3 °F /  -17.1 °C 1004.6 in /  34015.8 hPa WSW 3.2 mph /  5.1 km/h 6.4 mph /  10.3 km/h 89 % 0.0 in /  0 mm
03:42 2.9 °F /  -16.2 °C 1.3 °F /  -17.1 °C 1005.0 in /  34029.3 hPa WSW 1.6 mph /  2.6 km/h 6.4 mph /  10.3 km/h 89 % 0.0 in /  0 mm
03:52 3.0 °F /  -16.1 °C 1.4 °F /  -17 °C 1005.0 in /  34029.3 hPa WSW 1.6 mph /  2.6 km/h 8.0 mph /  12.9 km/h 89 % 0.0 in /  0 mm
03:57 3.0 °F /  -16.1 °C 1.4 °F /  -17 °C 1005.3 in /  34039.5 hPa WSW 3.2 mph /  5.1 km/h 8.0 mph /  12.9 km/h 89 % 0.0 in /  0 mm
04:07 2.9 °F /  -16.2 °C 1.3 °F /  -17.1 °C 1005.3 in /  34039.5 hPa West 3.2 mph /  5.1 km/h 9.7 mph /  15.6 km/h 89 % 0.0 in /  0 mm
04:12 2.9 °F /  -16.2 °C 1.3 °F /  -17.1 °C 1005.6 in /  34049.6 hPa WSW 4.8 mph /  7.7 km/h 8.0 mph /  12.9 km/h 89 % 0.0 in /  0 mm
04:17 2.8 °F /  -16.2 °C 1.3 °F /  -17.1 °C 1005.6 in /  34049.6 hPa West 8.0 mph /  12.9 km/h 8.0 mph /  12.9 km/h 90 % 0.0 in /  0 mm
04:22 2.8 °F /  -16.2 °C 1.2 °F /  -17.1 °C 1005.6 in /  34049.6 hPa WSW 8.0 mph /  12.9 km/h 8.0 mph /  12.9 km/h 89 % 0.0 in /  0 mm
04:27 2.8 °F /  -16.2 °C 1.2 °F /  -17.1 °C 1005.6 in /  34049.6 hPa WNW 6.4 mph /  10.3 km/h 9.7 mph /  15.6 km/h 89 % 0.0 in /  0 mm
04:42 2.6 °F /  -16.3 °C 1.0 °F /  -17.2 °C 1006.3 in /  34073.3 hPa WNW 4.8 mph /  7.7 km/h 9.7 mph /  15.6 km/h 89 % 0.0 in /  0 mm
04:47 2.6 °F /  -16.3 °C 1.0 °F /  -17.2 °C 1006.3 in /  34073.3 hPa WNW 3.2 mph /  5.1 km/h 9.7 mph /  15.6 km/h 89 % 0.0 in /  0 mm
04:52 2.5 °F /  -16.4 °C 1.0 °F /  -17.2 °C 1006.3 in /  34073.3 hPa West 3.2 mph /  5.1 km/h 9.7 mph /  15.6 km/h 90 % 0.0 in /  0 mm
04:57 2.5 °F /  -16.4 °C 1.0 °F /  -17.2 °C 1006.3 in /  34073.3 hPa WNW 6.4 mph /  10.3 km/h 9.7 mph /  15.6 km/h 90 % 0.0 in /  0 mm
05:02 2.5 °F /  -16.4 °C 1.0 °F /  -17.2 °C 1006.7 in /  34086.9 hPa West 4.8 mph /  7.7 km/h 8.0 mph /  12.9 km/h 90 % 0.0 in /  0 mm
05:12 2.3 °F /  -16.5 °C 0.8 °F /  -17.3 °C 1007.0 in /  34097 hPa West 1.6 mph /  2.6 km/h 8.0 mph /  12.9 km/h 90 % 0.0 in /  0 mm
05:17 2.3 °F /  -16.5 °C 0.8 °F /  -17.3 °C 1007.0 in /  34097 hPa West 1.6 mph /  2.6 km/h 8.0 mph /  12.9 km/h 90 % 0.0 in /  0 mm
05:37 2.2 °F /  -16.6 °C 0.9 °F /  -17.3 °C 1007.3 in /  34107.2 hPa West 8.0 mph /  12.9 km/h 8.0 mph /  12.9 km/h 91 % 0.0 in /  0 mm
05:42 2.1 °F /  -16.6 °C 0.8 °F /  -17.3 °C 1007.3 in /  34107.2 hPa WNW 8.0 mph /  12.9 km/h 9.7 mph /  15.6 km/h 91 % 0.0 in /  0 mm
05:47 2.1 °F /  -16.6 °C 0.8 °F /  -17.3 °C 1007.7 in /  34120.7 hPa WNW 6.4 mph /  10.3 km/h 11.3 mph /  18.2 km/h 91 % 0.0 in /  0 mm
05:52 1.9 °F /  -16.7 °C 0.6 °F /  -17.4 °C 1008.0 in /  34130.9 hPa NW 3.2 mph /  5.1 km/h 11.3 mph /  18.2 km/h 91 % 0.0 in /  0 mm
05:57 1.9 °F /  -16.7 °C 0.6 °F /  -17.4 °C 1007.7 in /  34120.7 hPa WNW 4.8 mph /  7.7 km/h 11.3 mph /  18.2 km/h 91 % 0.0 in /  0 mm
06:02 1.9 °F /  -16.7 °C 0.6 °F /  -17.4 °C 1008.0 in /  34130.9 hPa West 4.8 mph /  7.7 km/h 11.3 mph /  18.2 km/h 91 % 0.0 in /  0 mm
06:22 1.7 °F /  -16.8 °C 0.5 °F /  -17.5 °C 1008.7 in /  34154.6 hPa WNW 9.7 mph /  15.6 km/h 11.3 mph /  18.2 km/h 92 % 0.0 in /  0 mm
06:27 1.7 °F /  -16.8 °C 0.5 °F /  -17.5 °C 1008.7 in /  34154.6 hPa West 1.6 mph /  2.6 km/h 11.3 mph /  18.2 km/h 92 % 0.0 in /  0 mm
06:37 1.6 °F /  -16.9 °C 0.4 °F /  -17.6 °C 1009.4 in /  34178.3 hPa WNW 6.4 mph /  10.3 km/h 11.3 mph /  18.2 km/h 92 % 0.0 in /  0 mm
06:52 1.4 °F /  -17 °C 0.2 °F /  -17.7 °C 1009.7 in /  34188.4 hPa NW 4.8 mph /  7.7 km/h 14.5 mph /  23.3 km/h 92 % 0.0 in /  0 mm
07:02 1.3 °F /  -17.1 °C 0.1 °F /  -17.7 °C 1010.0 in /  34198.6 hPa WSW 1.6 mph /  2.6 km/h 11.3 mph /  18.2 km/h 92 % 0.0 in /  0 mm
07:12 1.2 °F /  -17.1 °C 0.2 °F /  -17.7 °C 1010.0 in /  34198.6 hPa Calm   8.0 mph /  12.9 km/h 93 % 0.0 in /  0 mm
07:17 1.2 °F /  -17.1 °C 0.2 °F /  -17.7 °C 1010.0 in /  34198.6 hPa WNW 1.6 mph /  2.6 km/h 8.0 mph /  12.9 km/h 93 % 0.0 in /  0 mm
07:27 1.2 °F /  -17.1 °C 0.2 °F /  -17.7 °C 1010.4 in /  34212.1 hPa Calm   4.8 mph /  7.7 km/h 93 % 0.0 in /  0 mm
07:32 1.1 °F /  -17.2 °C 0.1 °F /  -17.7 °C 1010.4 in /  34212.1 hPa West 1.6 mph /  2.6 km/h 4.8 mph /  7.7 km/h 93 % 0.0 in /  0 mm
07:42 0.9 °F /  -17.3 °C -0.1 °F /  -17.8 °C 1010.7 in /  34222.3 hPa SW 1.6 mph /  2.6 km/h 3.2 mph /  5.1 km/h 93 % 0.0 in /  0 mm
07:47 0.8 °F /  -17.3 °C -0.2 °F /  -17.9 °C 1011.1 in /  34235.8 hPa SW 1.6 mph /  2.6 km/h 3.2 mph /  5.1 km/h 93 % 0.0 in /  0 mm
07:57 0.8 °F /  -17.3 °C -0.2 °F /  -17.9 °C 1011.1 in /  34235.8 hPa Calm   3.2 mph /  5.1 km/h 93 % 0.0 in /  0 mm
08:02 0.7 °F /  -17.4 °C -0.3 °F /  -17.9 °C 1011.1 in /  34235.8 hPa West 1.6 mph /  2.6 km/h 3.2 mph /  5.1 km/h 93 % 0.0 in /  0 mm
08:07 0.7 °F /  -17.4 °C -0.3 °F /  -17.9 °C 1011.1 in /  34235.8 hPa WSW 3.2 mph /  5.1 km/h 3.2 mph /  5.1 km/h 93 % 0.0 in /  0 mm
08:12 0.7 °F /  -17.4 °C -0.3 °F /  -17.9 °C 1011.4 in /  34246 hPa West 3.2 mph /  5.1 km/h 3.2 mph /  5.1 km/h 93 % 0.0 in /  0 mm
08:17 0.6 °F /  -17.4 °C -0.3 °F /  -17.9 °C 1011.4 in /  34246 hPa WSW 1.6 mph /  2.6 km/h 4.8 mph /  7.7 km/h 94 % 0.0 in /  0 mm
08:27 0.5 °F /  -17.5 °C -0.4 °F /  -18 °C 1011.4 in /  34246 hPa Calm   4.8 mph /  7.7 km/h 94 % 0.0 in /  0 mm
08:32 0.4 °F /  -17.6 °C -0.5 °F /  -18.1 °C 1011.4 in /  34246 hPa Calm   4.8 mph /  7.7 km/h 94 % 0.0 in /  0 mm
08:37 0.3 °F /  -17.6 °C -0.6 °F /  -18.1 °C 1011.4 in /  34246 hPa Calm   4.8 mph /  7.7 km/h 94 % 0.0 in /  0 mm
08:42 0.2 °F /  -17.7 °C -0.7 °F /  -18.2 °C 1011.4 in /  34246 hPa Calm   3.2 mph /  5.1 km/h 94 % 0.0 in /  0 mm
08:47 0.2 °F /  -17.7 °C -0.7 °F /  -18.2 °C 1011.7 in /  34256.2 hPa WSW 1.6 mph /  2.6 km/h 3.2 mph /  5.1 km/h 94 % 0.0 in /  0 mm
08:57 0.0 °F /  -17.8 °C -0.8 °F /  -18.2 °C 1011.7 in /  34256.2 hPa Calm   1.6 mph /  2.6 km/h 94 % 0.0 in /  0 mm
09:02 0.1 °F /  -17.7 °C -0.6 °F /  -18.1 °C 1012.1 in /  34269.7 hPa Calm   1.6 mph /  2.6 km/h 95 % 0.0 in /  0 mm
09:07 0.1 °F /  -17.7 °C -0.6 °F /  -18.1 °C 1012.1 in /  34269.7 hPa SW 1.6 mph /  2.6 km/h 1.6 mph /  2.6 km/h 95 % 0.0 in /  0 mm
09:12 0.2 °F /  -17.7 °C -0.5 °F /  -18.1 °C 1012.1 in /  34269.7 hPa Calm   4.8 mph /  7.7 km/h 95 % 0.0 in /  0 mm
09:17 0.3 °F /  -17.6 °C -0.4 °F /  -18 °C 1012.1 in /  34269.7 hPa SSW 1.6 mph /  2.6 km/h 4.8 mph /  7.7 km/h 95 % 0.0 in /  0 mm
09:27 0.2 °F /  -17.7 °C -0.7 °F /  -18.2 °C 1012.4 in /  34279.9 hPa Calm   4.8 mph /  7.7 km/h 94 % 0.0 in /  0 mm
09:32 0.0 °F /  -17.8 °C -0.8 °F /  -18.2 °C 1012.4 in /  34279.9 hPa Calm   3.2 mph /  5.1 km/h 94 % 0.0 in /  0 mm
09:42 -0.1 °F /  -17.8 °C -0.8 °F /  -18.2 °C 1012.8 in /  34293.4 hPa South 4.8 mph /  7.7 km/h 4.8 mph /  7.7 km/h 95 % 0.0 in /  0 mm
09:47 -0.2 °F /  -17.9 °C -0.9 °F /  -18.3 °C 1012.8 in /  34293.4 hPa SW 3.2 mph /  5.1 km/h 6.4 mph /  10.3 km/h 95 % 0.0 in /  0 mm
09:57 -0.2 °F /  -17.9 °C -0.9 °F /  -18.3 °C 1012.8 in /  34293.4 hPa SW 1.6 mph /  2.6 km/h 6.4 mph /  10.3 km/h 95 % 0.0 in /  0 mm
10:02 -0.2 °F /  -17.9 °C -0.9 °F /  -18.3 °C 1013.1 in /  34303.6 hPa Calm   6.4 mph /  10.3 km/h 95 % 0.0 in /  0 mm
10:07 -0.2 °F /  -17.9 °C -0.9 °F /  -18.3 °C 1013.4 in /  34313.7 hPa Calm   4.8 mph /  7.7 km/h 95 % 0.0 in /  0 mm
10:17 -0.2 °F /  -17.9 °C -0.9 °F /  -18.3 °C 1013.4 in /  34313.7 hPa South 3.2 mph /  5.1 km/h 4.8 mph /  7.7 km/h 95 % 0.0 in /  0 mm
10:27 -0.4 °F /  -18 °C -1.1 °F /  -18.4 °C 1013.8 in /  34327.3 hPa SW 3.2 mph /  5.1 km/h 6.4 mph /  10.3 km/h 95 % 0.0 in /  0 mm
10:32 -0.4 °F /  -18 °C -1.0 °F /  -18.3 °C 1013.8 in /  34327.3 hPa SW 4.8 mph /  7.7 km/h 6.4 mph /  10.3 km/h 96 % 0.0 in /  0 mm
10:42 -0.3 °F /  -17.9 °C -0.9 °F /  -18.3 °C 1014.1 in /  34337.4 hPa SSW 4.8 mph /  7.7 km/h 8.0 mph /  12.9 km/h 96 % 0.0 in /  0 mm
10:52 -0.2 °F /  -17.9 °C -0.8 °F /  -18.2 °C 1014.4 in /  34347.6 hPa South 3.2 mph /  5.1 km/h 6.4 mph /  10.3 km/h 96 % 0.0 in /  0 mm
10:57 -0.2 °F /  -17.9 °C -0.8 °F /  -18.2 °C 1014.4 in /  34347.6 hPa South 3.2 mph /  5.1 km/h 8.0 mph /  12.9 km/h 96 % 0.0 in /  0 mm
11:12 -0.1 °F /  -17.8 °C -0.7 °F /  -18.2 °C 1014.4 in /  34347.6 hPa South 6.4 mph /  10.3 km/h 9.7 mph /  15.6 km/h 96 % 0.0 in /  0 mm
11:17 -0.1 °F /  -17.8 °C -0.7 °F /  -18.2 °C 1014.4 in /  34347.6 hPa SSW 4.8 mph /  7.7 km/h 9.7 mph /  15.6 km/h 96 % 0.0 in /  0 mm
11:32 0.1 °F /  -17.7 °C -0.5 °F /  -18.1 °C 1014.8 in /  34361.1 hPa SSW 4.8 mph /  7.7 km/h 12.9 mph /  20.8 km/h 96 % 0.0 in /  0 mm
11:37 0.0 °F /  -17.8 °C -0.6 °F /  -18.1 °C 1014.8 in /  34361.1 hPa SSW 4.8 mph /  7.7 km/h 12.9 mph /  20.8 km/h 96 % 0.0 in /  0 mm
11:42 0.1 °F /  -17.7 °C -0.5 °F /  -18.1 °C 1014.8 in /  34361.1 hPa SW 9.7 mph /  15.6 km/h 12.9 mph /  20.8 km/h 96 % 0.0 in /  0 mm
11:47 0.3 °F /  -17.6 °C -0.1 °F /  -17.8 °C 1014.4 in /  34347.6 hPa SSW 8.0 mph /  12.9 km/h 11.3 mph /  18.2 km/h 97 % 0.0 in /  0 mm
11:52 0.4 °F /  -17.6 °C 0.0 °F /  -17.8 °C 1014.4 in /  34347.6 hPa South 6.4 mph /  10.3 km/h 11.3 mph /  18.2 km/h 97 % 0.0 in /  0 mm
12:02 0.6 °F /  -17.4 °C 0.2 °F /  -17.7 °C 1014.4 in /  34347.6 hPa SW 12.9 mph /  20.8 km/h 12.9 mph /  20.8 km/h 97 % 0.0 in /  0 mm
12:12 1.0 °F /  -17.2 °C 0.6 °F /  -17.4 °C 1014.4 in /  34347.6 hPa SSW 9.7 mph /  15.6 km/h 14.5 mph /  23.3 km/h 97 % 0.0 in /  0 mm
12:27 0.9 °F /  -17.3 °C 0.5 °F /  -17.5 °C 1014.4 in /  34347.6 hPa SW 6.4 mph /  10.3 km/h 16.1 mph /  25.9 km/h 97 % 0.0 in /  0 mm
12:37 1.2 °F /  -17.1 °C 0.8 °F /  -17.3 °C 1014.8 in /  34361.1 hPa SSW 11.3 mph /  18.2 km/h 19.3 mph /  31.1 km/h 97 % 0.0 in /  0 mm
12:42 1.4 °F /  -17 °C 1.0 °F /  -17.2 °C 1014.8 in /  34361.1 hPa SW 9.7 mph /  15.6 km/h 14.5 mph /  23.3 km/h 97 % 0.0 in /  0 mm
12:52 2.0 °F /  -16.7 °C 1.6 °F /  -16.9 °C 1014.8 in /  34361.1 hPa SW 6.4 mph /  10.3 km/h 14.5 mph /  23.3 km/h 97 % 0.0 in /  0 mm
13:12 2.5 °F /  -16.4 °C 1.9 °F /  -16.7 °C 1014.8 in /  34361.1 hPa WSW 11.3 mph /  18.2 km/h 11.3 mph /  18.2 km/h 96 % 0.0 in /  0 mm
13:17 2.7 °F /  -16.3 °C 2.0 °F /  -16.7 °C 1014.8 in /  34361.1 hPa West 9.7 mph /  15.6 km/h 14.5 mph /  23.3 km/h 95 % 0.0 in /  0 mm
13:22 2.7 °F /  -16.3 °C 1.7 °F /  -16.8 °C 1015.1 in /  34371.3 hPa WSW 11.3 mph /  18.2 km/h 14.5 mph /  23.3 km/h 93 % 0.0 in /  0 mm
13:32 3.0 °F /  -16.1 °C 1.7 °F /  -16.8 °C 1015.1 in /  34371.3 hPa SW 9.7 mph /  15.6 km/h 12.9 mph /  20.8 km/h 91 % 0.0 in /  0 mm
13:37 3.3 °F /  -15.9 °C 1.8 °F /  -16.8 °C 1014.8 in /  34361.1 hPa South 4.8 mph /  7.7 km/h 16.1 mph /  25.9 km/h 90 % 0.0 in /  0 mm
13:52 3.9 °F /  -15.6 °C 2.1 °F /  -16.6 °C 1014.8 in /  34361.1 hPa SW 6.4 mph /  10.3 km/h 19.3 mph /  31.1 km/h 88 % 0.0 in /  0 mm
14:02 4.1 °F /  -15.5 °C 2.0 °F /  -16.7 °C 1014.8 in /  34361.1 hPa WSW 6.4 mph /  10.3 km/h 16.1 mph /  25.9 km/h 86 % 0.0 in /  0 mm
14:12 4.4 °F /  -15.3 °C 2.3 °F /  -16.5 °C 1015.1 in /  34371.3 hPa SW 4.8 mph /  7.7 km/h 16.1 mph /  25.9 km/h 86 % 0.0 in /  0 mm
14:22 4.4 °F /  -15.3 °C 1.9 °F /  -16.7 °C 1015.1 in /  34371.3 hPa SW 11.3 mph /  18.2 km/h 16.1 mph /  25.9 km/h 84 % 0.0 in /  0 mm
14:32 4.6 °F /  -15.2 °C 1.8 °F /  -16.8 °C 1015.1 in /  34371.3 hPa WSW 4.8 mph /  7.7 km/h 22.5 mph /  36.2 km/h 82 % 0.0 in /  0 mm
14:37 4.7 °F /  -15.2 °C 1.9 °F /  -16.7 °C 1015.1 in /  34371.3 hPa SW 9.7 mph /  15.6 km/h 22.5 mph /  36.2 km/h 82 % 0.0 in /  0 mm
14:42 4.9 °F /  -15.1 °C 1.9 °F /  -16.7 °C 1015.1 in /  34371.3 hPa WSW 8.0 mph /  12.9 km/h 16.1 mph /  25.9 km/h 81 % 0.0 in /  0 mm
14:47 4.9 °F /  -15.1 °C 1.7 °F /  -16.8 °C 1015.1 in /  34371.3 hPa SW 9.7 mph /  15.6 km/h 16.1 mph /  25.9 km/h 80 % 0.0 in /  0 mm
14:52 4.8 °F /  -15.1 °C 1.6 °F /  -16.9 °C 1015.1 in /  34371.3 hPa SW 8.0 mph /  12.9 km/h 19.3 mph /  31.1 km/h 80 % 0.0 in /  0 mm
15:02 4.6 °F /  -15.2 °C 1.4 °F /  -17 °C 1015.1 in /  34371.3 hPa SW 6.4 mph /  10.3 km/h 17.7 mph /  28.5 km/h 80 % 0.0 in /  0 mm
15:17 4.6 °F /  -15.2 °C 1.6 °F /  -16.9 °C 1015.5 in /  34384.8 hPa SW 6.4 mph /  10.3 km/h 12.9 mph /  20.8 km/h 81 % 0.0 in /  0 mm
15:32 4.7 °F /  -15.2 °C 1.5 °F /  -16.9 °C 1015.8 in /  34395 hPa WSW 11.3 mph /  18.2 km/h 12.9 mph /  20.8 km/h 80 % 0.0 in /  0 mm
15:42 4.7 °F /  -15.2 °C 1.5 °F /  -16.9 °C 1015.8 in /  34395 hPa WSW 1.6 mph /  2.6 km/h 12.9 mph /  20.8 km/h 80 % 0.0 in /  0 mm
15:47 4.7 °F /  -15.2 °C 1.5 °F /  -16.9 °C 1015.8 in /  34395 hPa SW 4.8 mph /  7.7 km/h 12.9 mph /  20.8 km/h 80 % 0.0 in /  0 mm
15:57 4.8 °F /  -15.1 °C 1.6 °F /  -16.9 °C 1015.8 in /  34395 hPa SSW 1.6 mph /  2.6 km/h 11.3 mph /  18.2 km/h 80 % 0.0 in /  0 mm
16:02 4.8 °F /  -15.1 °C 1.6 °F /  -16.9 °C 1015.8 in /  34395 hPa SW 11.3 mph /  18.2 km/h 11.3 mph /  18.2 km/h 80 % 0.0 in /  0 mm
16:07 4.8 °F /  -15.1 °C 1.8 °F /  -16.8 °C 1016.1 in /  34405.1 hPa SW 11.3 mph /  18.2 km/h 12.9 mph /  20.8 km/h 81 % 0.0 in /  0 mm
16:27 4.7 °F /  -15.2 °C 1.4 °F /  -17 °C 1016.1 in /  34405.1 hPa SW 12.9 mph /  20.8 km/h 14.5 mph /  23.3 km/h 79 % 0.0 in /  0 mm
16:32 4.8 °F /  -15.1 °C 1.5 °F /  -16.9 °C 1016.5 in /  34418.7 hPa SSW 12.9 mph /  20.8 km/h 19.3 mph /  31.1 km/h 79 % 0.0 in /  0 mm
16:37 4.7 °F /  -15.2 °C 1.4 °F /  -17 °C 1016.5 in /  34418.7 hPa SW 8.0 mph /  12.9 km/h 19.3 mph /  31.1 km/h 79 % 0.0 in /  0 mm
16:47 4.7 °F /  -15.2 °C 1.4 °F /  -17 °C 1016.8 in /  34428.8 hPa SW 4.8 mph /  7.7 km/h 19.3 mph /  31.1 km/h 79 % 0.0 in /  0 mm
16:52 4.6 °F /  -15.2 °C 1.4 °F /  -17 °C 1016.8 in /  34428.8 hPa SW 4.8 mph /  7.7 km/h 19.3 mph /  31.1 km/h 80 % 0.0 in /  0 mm
16:57 4.4 °F /  -15.3 °C 1.4 °F /  -17 °C 1016.8 in /  34428.8 hPa SW 4.8 mph /  7.7 km/h 12.9 mph /  20.8 km/h 81 % 0.0 in /  0 mm
17:02 4.3 °F /  -15.4 °C 1.5 °F /  -16.9 °C 1016.8 in /  34428.8 hPa SW 4.8 mph /  7.7 km/h 9.7 mph /  15.6 km/h 82 % 0.0 in /  0 mm
17:07 4.1 °F /  -15.5 °C 1.5 °F /  -16.9 °C 1016.8 in /  34428.8 hPa SW 4.8 mph /  7.7 km/h 8.0 mph /  12.9 km/h 83 % 0.0 in /  0 mm
17:12 4.0 °F /  -15.6 °C 1.5 °F /  -16.9 °C 1016.8 in /  34428.8 hPa SW 6.4 mph /  10.3 km/h 8.0 mph /  12.9 km/h 84 % 0.0 in /  0 mm
17:22 3.9 °F /  -15.6 °C 1.6 °F /  -16.9 °C 1017.2 in /  34442.4 hPa SSW 4.8 mph /  7.7 km/h 9.7 mph /  15.6 km/h 85 % 0.0 in /  0 mm
17:27 4.1 °F /  -15.5 °C 1.6 °F /  -16.9 °C 1017.2 in /  34442.4 hPa SW 1.6 mph /  2.6 km/h 8.0 mph /  12.9 km/h 84 % 0.0 in /  0 mm
17:32 4.2 °F /  -15.4 °C 1.6 °F /  -16.9 °C 1017.2 in /  34442.4 hPa SW 3.2 mph /  5.1 km/h 8.0 mph /  12.9 km/h 83 % 0.0 in /  0 mm
17:37 4.2 °F /  -15.4 °C 1.6 °F /  -16.9 °C 1017.2 in /  34442.4 hPa SSW 3.2 mph /  5.1 km/h 8.0 mph /  12.9 km/h 83 % 0.0 in /  0 mm
17:42 4.2 °F /  -15.4 °C 1.6 °F /  -16.9 °C 1017.2 in /  34442.4 hPa SSW 3.2 mph /  5.1 km/h 8.0 mph /  12.9 km/h 83 % 0.0 in /  0 mm
17:47 4.1 °F /  -15.5 °C 1.6 °F /  -16.9 °C 1017.2 in /  34442.4 hPa SSW 3.2 mph /  5.1 km/h 6.4 mph /  10.3 km/h 84 % 0.0 in /  0 mm
17:52 3.9 °F /  -15.6 °C 1.8 °F /  -16.8 °C 1017.2 in /  34442.4 hPa SSW 1.6 mph /  2.6 km/h 4.8 mph /  7.7 km/h 86 % 0.0 in /  0 mm
18:02 3.7 °F /  -15.7 °C 1.7 °F /  -16.8 °C 1017.5 in /  34452.6 hPa SSW 3.2 mph /  5.1 km/h 4.8 mph /  7.7 km/h 87 % 0.0 in /  0 mm
18:12 3.7 °F /  -15.7 °C 1.7 °F /  -16.8 °C 1017.5 in /  34452.6 hPa SSW 4.8 mph /  7.7 km/h 8.0 mph /  12.9 km/h 87 % 0.0 in /  0 mm
18:17 3.7 °F /  -15.7 °C 1.7 °F /  -16.8 °C 1017.5 in /  34452.6 hPa SW 6.4 mph /  10.3 km/h 8.0 mph /  12.9 km/h 87 % 0.0 in /  0 mm
18:27 3.7 °F /  -15.7 °C 1.6 °F /  -16.9 °C 1017.8 in /  34462.7 hPa SW 4.8 mph /  7.7 km/h 9.7 mph /  15.6 km/h 86 % 0.0 in /  0 mm
18:32 3.6 °F /  -15.8 °C 1.5 °F /  -16.9 °C 1017.5 in /  34452.6 hPa SSW 3.2 mph /  5.1 km/h 9.7 mph /  15.6 km/h 86 % 0.0 in /  0 mm
18:37 3.5 °F /  -15.8 °C 1.4 °F /  -17 °C 1017.5 in /  34452.6 hPa SSW 4.8 mph /  7.7 km/h 9.7 mph /  15.6 km/h 86 % 0.0 in /  0 mm
18:52 3.2 °F /  -16 °C 1.1 °F /  -17.2 °C 1017.8 in /  34462.7 hPa SW 3.2 mph /  5.1 km/h 6.4 mph /  10.3 km/h 86 % 0.0 in /  0 mm
18:57 3.1 °F /  -16.1 °C 0.8 °F /  -17.3 °C 1017.8 in /  34462.7 hPa SW 3.2 mph /  5.1 km/h 6.4 mph /  10.3 km/h 85 % 0.0 in /  0 mm
19:02 3.1 °F /  -16.1 °C 0.8 °F /  -17.3 °C 1017.8 in /  34462.7 hPa SW 4.8 mph /  7.7 km/h 6.4 mph /  10.3 km/h 85 % 0.0 in /  0 mm
19:07 2.9 °F /  -16.2 °C 0.6 °F /  -17.4 °C 1017.8 in /  34462.7 hPa SW 4.8 mph /  7.7 km/h 6.4 mph /  10.3 km/h 85 % 0.0 in /  0 mm
19:12 2.9 °F /  -16.2 °C 0.6 °F /  -17.4 °C 1017.8 in /  34462.7 hPa SSW 3.2 mph /  5.1 km/h 6.4 mph /  10.3 km/h 85 % 0.0 in /  0 mm
19:22 2.8 °F /  -16.2 °C 0.5 °F /  -17.5 °C 1017.8 in /  34462.7 hPa SW 3.2 mph /  5.1 km/h 4.8 mph /  7.7 km/h 85 % 0.0 in /  0 mm
19:32 2.8 °F /  -16.2 °C 0.5 °F /  -17.5 °C 1017.8 in /  34462.7 hPa SSW 1.6 mph /  2.6 km/h 4.8 mph /  7.7 km/h 85 % 0.0 in /  0 mm
19:37 2.7 °F /  -16.3 °C 0.4 °F /  -17.6 °C 1017.8 in /  34462.7 hPa SSW 3.2 mph /  5.1 km/h 4.8 mph /  7.7 km/h 85 % 0.0 in /  0 mm
19:42 2.7 °F /  -16.3 °C 0.4 °F /  -17.6 °C 1017.8 in /  34462.7 hPa SW 3.2 mph /  5.1 km/h 4.8 mph /  7.7 km/h 85 % 0.0 in /  0 mm
19:47 2.6 °F /  -16.3 °C 0.3 °F /  -17.6 °C 1018.2 in /  34476.3 hPa SSW 3.2 mph /  5.1 km/h 4.8 mph /  7.7 km/h 85 % 0.0 in /  0 mm
19:52 2.6 °F /  -16.3 °C 0.5 °F /  -17.5 °C 1018.2 in /  34476.3 hPa SSW 1.6 mph /  2.6 km/h 4.8 mph /  7.7 km/h 86 % 0.0 in /  0 mm
19:57 2.6 °F /  -16.3 °C 0.5 °F /  -17.5 °C 1018.2 in /  34476.3 hPa SSW 3.2 mph /  5.1 km/h 4.8 mph /  7.7 km/h 86 % 0.0 in /  0 mm
20:02 2.7 °F /  -16.3 °C 0.6 °F /  -17.4 °C 1018.2 in /  34476.3 hPa SSW 3.2 mph /  5.1 km/h 6.4 mph /  10.3 km/h 86 % 0.0 in /  0 mm
20:17 2.7 °F /  -16.3 °C 0.8 °F /  -17.3 °C 1018.5 in /  34486.4 hPa SSW 3.2 mph /  5.1 km/h 6.4 mph /  10.3 km/h 87 % 0.0 in /  0 mm
20:42 2.8 °F /  -16.2 °C 0.7 °F /  -17.4 °C 1018.5 in /  34486.4 hPa SSW 3.2 mph /  5.1 km/h 4.8 mph /  7.7 km/h 86 % 0.0 in /  0 mm
20:47 2.8 °F /  -16.2 °C 0.7 °F /  -17.4 °C 1018.5 in /  34486.4 hPa SSW 3.2 mph /  5.1 km/h 4.8 mph /  7.7 km/h 86 % 0.0 in /  0 mm
20:52 2.7 °F /  -16.3 °C 0.6 °F /  -17.4 °C 1018.5 in /  34486.4 hPa SW 4.8 mph /  7.7 km/h 4.8 mph /  7.7 km/h 86 % 0.0 in /  0 mm
20:57 2.8 °F /  -16.2 °C 0.7 °F /  -17.4 °C 1018.8 in /  34496.6 hPa SW 3.2 mph /  5.1 km/h 6.4 mph /  10.3 km/h 86 % 0.0 in /  0 mm
21:07 2.9 °F /  -16.2 °C 0.8 °F /  -17.3 °C 1018.8 in /  34496.6 hPa West 3.2 mph /  5.1 km/h 6.4 mph /  10.3 km/h 86 % 0.0 in /  0 mm
21:12 2.9 °F /  -16.2 °C 0.6 °F /  -17.4 °C 1018.8 in /  34496.6 hPa WSW 1.6 mph /  2.6 km/h 6.4 mph /  10.3 km/h 85 % 0.0 in /  0 mm
21:22 3.1 °F /  -16.1 °C 0.8 °F /  -17.3 °C 1018.8 in /  34496.6 hPa SW 1.6 mph /  2.6 km/h 4.8 mph /  7.7 km/h 85 % 0.0 in /  0 mm
21:32 2.9 °F /  -16.2 °C 0.6 °F /  -17.4 °C 1018.8 in /  34496.6 hPa SSW 1.6 mph /  2.6 km/h 4.8 mph /  7.7 km/h 85 % 0.0 in /  0 mm
21:42 2.6 °F /  -16.3 °C 0.7 °F /  -17.4 °C 1018.8 in /  34496.6 hPa SSW 3.2 mph /  5.1 km/h 4.8 mph /  7.7 km/h 87 % 0.0 in /  0 mm
21:52 2.4 °F /  -16.4 °C 0.5 °F /  -17.5 °C 1018.8 in /  34496.6 hPa SSW 3.2 mph /  5.1 km/h 4.8 mph /  7.7 km/h 87 % 0.0 in /  0 mm
22:02 2.3 °F /  -16.5 °C 0.7 °F /  -17.4 °C 1018.8 in /  34496.6 hPa SSW 6.4 mph /  10.3 km/h 8.0 mph /  12.9 km/h 89 % 0.0 in /  0 mm
22:12 2.4 °F /  -16.4 °C 0.8 °F /  -17.3 °C 1018.8 in /  34496.6 hPa SSW 6.4 mph /  10.3 km/h 9.7 mph /  15.6 km/h 89 % 0.0 in /  0 mm
22:17 2.7 °F /  -16.3 °C 0.9 °F /  -17.3 °C 1018.8 in /  34496.6 hPa SW 4.8 mph /  7.7 km/h 9.7 mph /  15.6 km/h 88 % 0.0 in /  0 mm
22:22 2.9 °F /  -16.2 °C 1.0 °F /  -17.2 °C 1018.8 in /  34496.6 hPa SW 3.2 mph /  5.1 km/h 9.7 mph /  15.6 km/h 87 % 0.0 in /  0 mm
22:27 3.1 °F /  -16.1 °C 1.0 °F /  -17.2 °C 1018.8 in /  34496.6 hPa SW 6.4 mph /  10.3 km/h 9.7 mph /  15.6 km/h 86 % 0.0 in /  0 mm
22:37 3.2 °F /  -16 °C 0.9 °F /  -17.3 °C 1018.8 in /  34496.6 hPa SSW 3.2 mph /  5.1 km/h 9.7 mph /  15.6 km/h 85 % 0.0 in /  0 mm
22:47 3.0 °F /  -16.1 °C 0.9 °F /  -17.3 °C 1018.8 in /  34496.6 hPa SSW 3.2 mph /  5.1 km/h 9.7 mph /  15.6 km/h 86 % 0.0 in /  0 mm
22:52 2.9 °F /  -16.2 °C 1.0 °F /  -17.2 °C 1018.8 in /  34496.6 hPa SSW 3.2 mph /  5.1 km/h 6.4 mph /  10.3 km/h 87 % 0.0 in /  0 mm
23:02 2.7 °F /  -16.3 °C 0.9 °F /  -17.3 °C 1018.8 in /  34496.6 hPa SSW 4.8 mph /  7.7 km/h 4.8 mph /  7.7 km/h 88 % 0.0 in /  0 mm
23:07 2.7 °F /  -16.3 °C 0.9 °F /  -17.3 °C 1019.2 in /  34510.1 hPa SW 4.8 mph /  7.7 km/h 4.8 mph /  7.7 km/h 88 % 0.0 in /  0 mm
23:17 2.9 °F /  -16.2 °C 1.0 °F /  -17.2 °C 1019.2 in /  34510.1 hPa SSW 3.2 mph /  5.1 km/h 6.4 mph /  10.3 km/h 87 % 0.0 in /  0 mm
23:27 2.9 °F /  -16.2 °C 1.0 °F /  -17.2 °C 1019.2 in /  34510.1 hPa Calm   6.4 mph /  10.3 km/h 87 % 0.0 in /  0 mm
23:32 2.9 °F /  -16.2 °C 1.0 °F /  -17.2 °C 1019.2 in /  34510.1 hPa South 1.6 mph /  2.6 km/h 6.4 mph /  10.3 km/h 87 % 0.0 in /  0 mm
23:37 2.8 °F /  -16.2 °C 0.9 °F /  -17.3 °C 1019.2 in /  34510.1 hPa Calm   4.8 mph /  7.7 km/h 87 % 0.0 in /  0 mm
23:52 2.7 °F /  -16.3 °C 0.9 °F /  -17.3 °C 1019.2 in /  34510.1 hPa SSE 1.6 mph /  2.6 km/h 4.8 mph /  7.7 km/h 88 % 0.0 in /  0 mm
23:57 2.7 °F /  -16.3 °C 0.9 °F /  -17.3 °C 1018.8 in /  34496.6 hPa SSE 1.6 mph /  2.6 km/h 4.8 mph /  7.7 km/h 88 % 0.0 in /  0 mm
Meteo18
Compliments of Weather Underground - 4 mb

Script developed by  Jim McMurry - jmcmurry@mwt.net Adapted for the template by  Wim van der Kuil - Leuven-Template.eu

You find our weather info also at:

European Weather Network

Weather Underground

Equipment we use:

Weather-station
Davis Vue

Weather-program
Meteobridge

Weather-server
Raspberry PI 2 B+

Provider
1 and 1

Davis Vue

Meteobridge

Raspberry PI 2 B+

1 and 1